Big Pine Key, FL (33043)

7:46 AM EDT on July 28, 2016 (GMT -0400)
Jolly Rogers; Little Torch Key | | Change Station

Elev 7 ft 24.66 °N, 81.39 °W | Updated 6 minutes ago

Overcast
Overcast
81.7 °F
Feels Like 90 °F
N
9.4
Wind Variable Wind from ESE

Today
High -- | Low -- °F
--% Chance of Precip.
Yesterday
High -- | Low -- °F
Precip. -- in
Pressure 30.05 in
Visibility 0.5 miles
Clouds Scattered Clouds 1000 ft
Overcast 2500 ft
Heat Index 90 °F
Dew Point 77 °F
Humidity 86%
Rainfall 0.00 in
Snow Depth Not available.
6:51 AM 8:11 PM
Waning Crescent, 33% visible
SPECI KNQX 281142Z 12019G26KT 1/2SM +TSRA FG SCT010 OVC025CB 25/23 A3005 RMK AO2 PK WND 13029/1132 WSHFT 1128 RAB25 TSB42 OCNL LTGICCG OHD TS OHD MOV NW T1 SET P0026 T02500233 $
Pressure 30.05 in
Visibility 0.5 miles
Clouds Scattered Clouds 1000 ft
Overcast 2500 ft
Heat Index 90 °F
Dew Point 77 °F
Humidity 86%
Rainfall 0.00 in
Snow Depth Not available.
6:51 AM 8:11 PM
Waning Crescent, 33% visible
SPECI KNQX 281142Z 12019G26KT 1/2SM +TSRA FG SCT010 OVC025CB 25/23 A3005 RMK AO2 PK WND 13029/1132 WSHFT 1128 RAB25 TSB42 OCNL LTGICCG OHD TS OHD MOV NW T1 SET P0026 T02500233 $

10-Day Weather Forecast

Almanac

Astronomy

Jul. 28, 2016 Rise Set
Actual Time
Civil Twilight
Nautical Twilight
Astronomical Twilight
Moon
Length of Visible Light
Length of Day
Tomorrow will be .
, % of the Moon is Illuminated

Today's Extremes

State Highs State Lows

Community

WunderPhotos

Upload Photos

1,928,096 photos uploaded!

WunderBlog® & News

Nearby

Air Quality

  Air Quality AQ Index Pollutant
Not available.

Snow Depth

Station Depth Elevation

Earthquake Activity

City Distance Mag. Time & Date
Minimum magnitude displayed is 2.5.

Coastal Water Temperatures

Place Temperature

Stations

Nearby Weather Stations

Station Location Temp. Windchill Dew Point Humidity Wind Precip. Elev Updated Type
                   

Watches & Warnings

There are currently no watches in effect.